• Join FlightAware (Why Join?)
  • Login
  • US Flag 
01:26AM EDT


 

Airport Tracker/Info


-or-


 

Live Flight TrackerFlight Track Log ✈ CAV519 ✈ 03-May-2013 ✈ CYWG - CYFO

Flight Track Log - Related Links

Times and Time Zones

All times are in EDT time to prevent confusion due to time zone crossing. See the CAV519 flight status page for this flight to view local times or setup timezone preferences in your user account.

Time Position Orientation Groundspeed Altitude Reporting Facility
EDT Latitude Longitude Course Direction KTS MPH feet Rate Location/Type
06:50PM 49.9167 -97.2500 327° Northwest 150 173 1,900  Level Winnipeg Center
06:51PM 49.9333 -97.3000 297° West 160 184 2,900 1,200 Climbing Winnipeg Center
06:52PM 49.9833 -97.3333 337° Northwest 160 184 4,300 1,260 Climbing Winnipeg Center
06:53PM 50.0167 -97.3833 316° Northwest 160 184 5,500 1,320 Climbing Winnipeg Center
06:54PM 50.0667 -97.4167 337° Northwest 160 184 7,000 1,320 Climbing Winnipeg Center
06:55PM 50.2308 -97.5141 327° Northwest  Level FlightAware Approximate
06:55PM 50.1000 -97.4333 342° North 170 196 8,200  Level Winnipeg Center
06:56PM 50.1333 -97.4833 316° Northwest 170 196 9,300 1,140 Climbing Winnipeg Center
06:57PM 50.1833 -97.5167 337° Northwest 180 207 10,500 1,200 Climbing Winnipeg Center
06:58PM 50.2333 -97.5333 348° North 180 207 11,700 1,200 Climbing Winnipeg Center
06:59PM 50.2833 -97.6000 320° Northwest 180 207 12,900 1,080 Climbing Winnipeg Center
07:00PM 50.3167 -97.6167 342° North 190 219 13,900 1,020 Climbing Winnipeg Center
07:01PM 50.3667 -97.6667 327° Northwest 190 219 15,000 900 Climbing Winnipeg Center
07:02PM 50.4167 -97.7000 337° Northwest 200 230 15,800 840 Climbing Winnipeg Center
07:03PM 50.4667 -97.7500 328° Northwest 200 230 16,700 900 Climbing Winnipeg Center
07:04PM 50.5167 -97.7833 337° Northwest 200 230 17,600 600 Climbing Winnipeg Center
07:05PM 50.5667 -97.8333 328° Northwest 200 230 17,900 540 Climbing Winnipeg Center
07:06PM 50.6167 -97.8667 337° Northwest 200 230 18,700 660 Climbing Winnipeg Center
07:07PM 50.6667 -97.9167 328° Northwest 200 230 19,300 600 Climbing Winnipeg Center
07:08PM 50.7167 -97.9667 328° Northwest 210 242 19,900 300 Climbing Winnipeg Center
07:09PM 50.7667 -98.0000 337° Northwest 220 253 20,000  Climbing Winnipeg Center
07:10PM 50.8333 -98.0500 335° Northwest 230 265 20,000  Level Winnipeg Center
07:11PM 50.9000 -98.1000 335° Northwest 250 288 20,000  Level Winnipeg Center
07:12PM 50.9500 -98.1667 320° Northwest 250 288 20,000  Level Winnipeg Center
07:13PM 51.0167 -98.2167 335° Northwest 250 288 20,000  Level Winnipeg Center
07:14PM 51.0667 -98.2667 328° Northwest 250 288 20,000  Level Winnipeg Center
07:15PM 51.1333 -98.3333 328° Northwest 250 288 20,000  Level Winnipeg Center
07:16PM 51.2000 -98.3500 351° North 250 288 20,000  Level Winnipeg Center
07:17PM 51.2667 -98.4333 322° Northwest 250 288 20,000  Level Winnipeg Center
07:18PM 51.3167 -98.4667 337° Northwest 250 288 20,000  Level Winnipeg Center
07:19PM 51.3667 -98.5167 328° Northwest 250 288 20,000  Level Winnipeg Center
07:20PM 51.4167 -98.5833 320° Northwest 250 288 20,000  Level Winnipeg Center
07:21PM 51.4833 -98.6333 335° Northwest 250 288 20,000  Level Winnipeg Center
07:22PM 51.5500 -98.6833 335° Northwest 250 288 20,000  Level Winnipeg Center
07:23PM 51.6000 -98.7500 320° Northwest 250 288 20,000  Level Winnipeg Center
07:24PM 51.6667 -98.8000 335° Northwest 250 288 20,000  Level Winnipeg Center
07:25PM 51.7333 -98.8500 335° Northwest 250 288 20,000  Level Winnipeg Center
07:26PM 51.8000 -98.9167 328° Northwest 250 288 20,000  Level Winnipeg Center
07:27PM 51.8500 -98.9667 328° Northwest 250 288 20,000  Level Winnipeg Center
07:28PM 51.9167 -99.0333 328° Northwest 250 288 20,000  Level Winnipeg Center
07:29PM 51.9833 -99.0833 335° Northwest 250 288 20,000  Level Winnipeg Center
07:30PM 52.0333 -99.1167 338° Northwest 250 288 20,000  Level Winnipeg Center
07:31PM 52.1000 -99.1667 335° Northwest 250 288 20,000  Level Winnipeg Center
07:32PM 52.1667 -99.2333 328° Northwest 250 288 20,000  Level Winnipeg Center
07:33PM 52.2333 -99.2833 335° Northwest 250 288 20,000  Level Winnipeg Center
07:34PM 52.2833 -99.3500 321° Northwest 260 299 20,000  Level Winnipeg Center
07:35PM 52.3500 -99.4000 335° Northwest 250 288 20,000  Level Winnipeg Center
07:36PM 52.4167 -99.4667 329° Northwest 250 288 20,000  Level Winnipeg Center
07:37PM 52.4667 -99.5167 329° Northwest 250 288 20,000  Level Winnipeg Center
07:38PM 52.5333 -99.5833 329° Northwest 250 288 20,000  Level Winnipeg Center
07:39PM 52.6000 -99.6333 336° Northwest 250 288 20,000  Level Winnipeg Center
07:40PM 52.6667 -99.7000 329° Northwest 250 288 20,000  Level Winnipeg Center
07:41PM 52.7167 -99.7500 329° Northwest 250 288 20,000  Level Winnipeg Center
07:42PM 52.7667 -99.8167 321° Northwest 250 288 20,000  Level Winnipeg Center
07:43PM 52.8333 -99.8500 343° North 250 288 20,000  Level Winnipeg Center
07:45PM 52.9500 -99.9667 329° Northwest 250 288 20,000  Level Winnipeg Center
07:47PM 53.0572 -100.0620 332° Northwest  Level FlightAware Approximate
07:52PM 53.4167 -100.4167 329° Northwest 270 311 20,000  Level Winnipeg Center
07:53PM 53.4833 -100.4833 329° Northwest 240 276 20,000  Level Winnipeg Center
07:54PM 53.4405 -100.4237 329° Northwest  Level FlightAware Approximate
07:54PM 53.5333 -100.5333 329° Northwest 260 299 20,000  Level Winnipeg Center
07:55PM 53.4945 -100.4778 329° Northwest  Level FlightAware Approximate
07:55PM 53.5833 -100.6000 322° Northwest 240 276 20,000  Level Winnipeg Center
07:56PM 53.5487 -100.5316 329° Northwest  Level FlightAware Approximate
07:56PM 53.6500 -100.6667 329° Northwest 250 288 20,000  Level Winnipeg Center
07:57PM 53.6028 -100.5856 329° Northwest  Level FlightAware Approximate
07:57PM 53.7000 -100.7000 338° Northwest 260 299 20,000  Level Winnipeg Center
07:58PM 53.6569 -100.6397 329° Northwest  Level FlightAware Approximate
07:58PM 53.7667 -100.7667 329° Northwest 230 265 20,000  Level Winnipeg Center
07:59PM 53.8167 -100.8167 329° Northwest 240 276 20,000  Level Winnipeg Center
08:00PM 53.8833 -100.8833 329° Northwest 250 288 20,000 -720 Level Winnipeg Center
08:01PM 53.9500 -100.9833 319° Northwest 280 322 18,600 -1,560 Descending Winnipeg Center
08:02PM 54.0167 -101.0333 336° Northwest 310 357 16,900 -1,740 Descending Winnipeg Center
08:05PM 54.0882 -101.0889 336° Northwest  Level FlightAware Approximate
08:12PM 54.4691 -101.4673 327° Northwest  Level FlightAware Approximate
08:13PM 54.5230 -101.5230 330° Northwest  Level FlightAware Approximate
08:14PM 54.5774 -101.5774 330° Northwest  Level FlightAware Approximate
08:15PM 54.6319 -101.6319 330° Northwest  Level FlightAware Approximate
08:16PM 54.6667 -101.6667 330° Northwest  Level FlightAware Approximate
08:17PM 54.6781 -101.6817 330° Northwest  Level Estimated
08:18PM 54.6781 -101.6817 330° Northwest  Level Estimated
08:19PM 54.6781 -101.6817 330° Northwest  Level Estimated
08:20PM 54.6781 -101.6817 330° Northwest  Level Estimated
08:21PM 54.6781 -101.6817 330° Northwest  Level Estimated